Time;durP1;ratioP1;P1;durP2;ratioP2;P2;SDS_P1;SDS_P2;PMS_P1;PMS_P2;Temp;Humidity;BMP_temperature;BMP_pressure;BME280_temperature;BME280_humidity;BME280_pressure;Samples;Min_cycle;Max_cycle;Signal;HPM_P1;HPM_P2
2021/11/16 00:01:59;;;;;;;53.27;28.20;;;;;;;3.76;94.55;95970.19;5070707;28;20212;-78
2021/11/16 00:04:25;;;;;;;51.77;28.87;;;;;;;3.75;94.64;95974.50;5063326;28;20204;-78
2021/11/16 00:06:53;;;;;;;54.43;27.37;;;;;;;3.74;94.62;95972.88;5090315;28;20185;-78
2021/11/16 00:09:19;;;;;;;52.63;27.33;;;;;;;3.68;94.86;95981.75;5090526;28;20183;-78
2021/11/16 00:11:44;;;;;;;60.60;28.67;;;;;;;3.71;95.18;95983.34;5090478;28;20196;-79
2021/11/16 00:14:10;;;;;;;51.33;27.33;;;;;;;3.74;95.10;95985.72;5079219;28;20279;-79
2021/11/16 00:16:37;;;;;;;50.00;26.03;;;;;;;3.77;94.63;95982.13;5082228;28;20208;-77
2021/11/16 00:19:06;;;;;;;49.27;26.50;;;;;;;3.70;95.18;95982.50;5073955;28;20221;-78
2021/11/16 00:21:31;;;;;;;49.80;26.50;;;;;;;3.73;94.80;95980.66;5073543;28;20200;-78
2021/11/16 00:23:58;;;;;;;51.10;26.33;;;;;;;3.73;94.80;95985.81;5082781;28;20191;-79
2021/11/16 00:26:24;;;;;;;57.17;27.50;;;;;;;3.76;94.58;95981.28;5082358;28;20209;-79
2021/11/16 00:28:51;;;;;;;49.90;27.33;;;;;;;3.70;94.72;95987.63;5074636;28;20864;-79
2021/11/16 00:31:16;;;;;;;48.53;26.03;;;;;;;3.70;94.87;95987.63;5057043;28;20225;-78
2021/11/16 00:33:42;;;;;;;49.07;25.77;;;;;;;3.71;94.85;95988.47;5056020;28;20213;-79
2021/11/16 00:36:08;;;;;;;46.10;24.87;;;;;;;3.68;94.80;95989.47;5084994;28;20194;-79
2021/11/16 00:38:35;;;;;;;45.53;26.17;;;;;;;3.70;94.95;95991.94;5094582;28;20175;-77
2021/11/16 00:41:00;;;;;;;49.77;27.30;;;;;;;3.68;94.50;95992.03;5094595;28;20200;-79
2021/11/16 00:43:26;;;;;;;50.77;25.57;;;;;;;3.68;94.46;95992.03;5077687;28;20274;-79
2021/11/16 00:45:51;;;;;;;46.43;25.97;;;;;;;3.67;94.59;95985.25;5088913;28;20191;-79
2021/11/16 00:48:20;;;;;;;53.77;27.30;;;;;;;3.66;95.04;95986.19;5085867;28;20226;-78
2021/11/16 00:50:49;;;;;;;50.37;25.67;;;;;;;3.65;95.22;95978.56;5094278;28;20279;-81
2021/11/16 00:53:14;;;;;;;45.37;24.83;;;;;;;3.66;95.19;95983.59;5094908;28;20176;-79
2021/11/16 00:55:40;;;;;;;46.57;25.40;;;;;;;3.66;94.75;95987.94;5087305;28;20183;-78
2021/11/16 00:58:05;;;;;;;46.33;25.10;;;;;;;3.69;95.17;95987.72;5082685;28;20240;-79
2021/11/16 01:00:31;;;;;;;51.67;26.87;;;;;;;3.66;95.22;95980.22;5074521;28;20220;-79
2021/11/16 01:02:57;;;;;;;48.33;25.17;;;;;;;3.69;94.80;95987.72;5074073;28;20200;-80
2021/11/16 01:05:23;;;;;;;53.67;26.27;;;;;;;3.65;95.14;95992.25;5056259;28;20695;-79
2021/11/16 01:07:49;;;;;;;50.67;26.20;;;;;;;3.64;94.93;95989.78;5067476;28;20188;-79
2021/11/16 01:10:17;;;;;;;49.93;25.50;;;;;;;3.63;95.17;95988.13;5073845;28;20557;-79
2021/11/16 01:12:43;;;;;;;45.77;25.00;;;;;;;3.69;95.18;95988.53;5056949;28;20185;-79
2021/11/16 01:15:10;;;;;;;50.67;27.00;;;;;;;3.58;95.21;95990.13;5090056;28;20176;-79
2021/11/16 01:17:35;;;;;;;48.90;25.93;;;;;;;3.64;94.99;95995.72;5078936;28;20191;-79
2021/11/16 01:20:03;;;;;;;44.53;24.33;;;;;;;3.69;94.64;95992.88;5086063;28;20169;-79
2021/11/16 01:22:29;;;;;;;44.63;24.63;;;;;;;3.63;94.78;95993.25;5094280;28;20647;-79
2021/11/16 01:24:54;;;;;;;46.83;25.27;;;;;;;3.62;94.81;95987.31;5093768;28;20233;-78
2021/11/16 01:27:20;;;;;;;47.77;25.63;;;;;;;3.61;94.76;95998.47;5074422;28;20304;-79
2021/11/16 01:29:48;;;;;;;52.37;25.97;;;;;;;3.56;94.94;95997.94;5082616;28;20227;-79
2021/11/16 01:32:27;;;;;;;48.00;24.33;;;;;;;3.59;95.12;95997.75;5073652;28;20212;-79
2021/11/16 01:34:53;;;;;;;50.10;25.93;;;;;;;3.58;95.53;95998.66;5057671;28;20175;-77
2021/11/16 01:37:18;;;;;;;44.80;24.53;;;;;;;3.58;95.24;95993.53;5071982;28;20192;-78
2021/11/16 01:39:44;;;;;;;50.57;25.13;;;;;;;3.57;95.73;95994.44;5082321;28;20193;-79
2021/11/16 01:42:09;;;;;;;41.90;23.77;;;;;;;3.59;95.24;95992.59;5089639;28;20208;-78
2021/11/16 01:44:35;;;;;;;50.63;24.97;;;;;;;3.57;95.36;95993.63;5092274;28;20181;-77
2021/11/16 01:47:00;;;;;;;44.87;23.00;;;;;;;3.60;95.18;95990.88;5073594;28;20179;-78
2021/11/16 01:49:26;;;;;;;45.17;24.23;;;;;;;3.51;95.14;95999.94;5076000;28;20212;-79
2021/11/16 01:51:51;;;;;;;52.53;26.87;;;;;;;3.52;95.46;96003.34;5070581;28;20576;-79
2021/11/16 01:54:16;;;;;;;45.73;24.83;;;;;;;3.50;95.93;95995.75;5055556;28;20197;-79
2021/11/16 01:56:44;;;;;;;47.23;24.13;;;;;;;3.51;95.62;95988.84;5055937;28;20549;-79
2021/11/16 01:59:10;;;;;;;46.93;25.50;;;;;;;3.52;95.55;95991.31;5072020;28;20715;-80
2021/11/16 02:01:38;;;;;;;45.43;24.17;;;;;;;3.52;95.88;95987.94;5063976;28;20207;-78
2021/11/16 02:04:05;;;;;;;47.90;24.43;;;;;;;3.53;95.89;95992.97;5072207;28;20860;-78
2021/11/16 02:06:34;;;;;;;56.23;24.77;;;;;;;3.53;95.85;95982.69;5055861;28;20218;-77
2021/11/16 02:09:01;;;;;;;42.20;23.23;;;;;;;3.50;95.82;95977.75;5073009;28;20334;-79
2021/11/16 02:11:26;;;;;;;47.80;24.70;;;;;;;3.54;95.62;95978.41;5066346;28;20656;-79
2021/11/16 02:13:51;;;;;;;45.73;23.43;;;;;;;3.54;95.69;95975.84;5077118;28;20213;-79
2021/11/16 02:16:17;;;;;;;41.87;22.87;;;;;;;3.60;94.82;95978.03;5055321;28;20208;-78
2021/11/16 02:18:44;;;;;;;39.77;21.87;;;;;;;3.68;94.30;95979.19;5071493;28;20183;-78
2021/11/16 02:21:09;;;;;;;47.30;23.30;;;;;;;3.57;94.23;95973.91;5072297;28;20207;-78
2021/11/16 02:23:37;;;;;;;44.33;24.20;;;;;;;3.58;94.56;95967.03;5082261;28;20179;-77
2021/11/16 02:26:03;;;;;;;38.23;21.70;;;;;;;3.56;94.31;95966.31;5061029;28;20581;-79
2021/11/16 02:28:28;;;;;;;41.83;21.03;;;;;;;3.49;94.26;95970.97;5071341;28;20194;-79
2021/11/16 02:30:54;;;;;;;40.37;22.40;;;;;;;3.40;94.40;95963.84;5071741;28;20205;-79
2021/11/16 02:33:20;;;;;;;41.80;22.00;;;;;;;3.36;94.54;95965.78;5079496;28;20202;-78
2021/11/16 02:35:45;;;;;;;42.27;22.30;;;;;;;3.42;94.34;95962.81;5070887;28;20177;-77
2021/11/16 02:38:11;;;;;;;40.67;21.43;;;;;;;3.39;94.44;95959.63;5071040;28;20652;-78
2021/11/16 02:40:36;;;;;;;43.40;22.50;;;;;;;3.35;94.54;95951.28;5072466;28;20228;-80
2021/11/16 02:43:02;;;;;;;41.77;22.47;;;;;;;3.41;94.33;95962.91;5079553;28;20184;-79
2021/11/16 02:45:27;;;;;;;46.73;23.30;;;;;;;3.36;94.87;95954.69;5082340;28;20217;-78
2021/11/16 02:47:53;;;;;;;46.50;23.40;;;;;;;3.36;95.41;95960.66;5091240;28;20212;-78
2021/11/16 02:50:19;;;;;;;44.67;22.10;;;;;;;3.36;95.28;95954.69;5090942;28;20200;-79
2021/11/16 02:52:46;;;;;;;47.43;22.93;;;;;;;3.21;95.97;95955.63;5088602;28;20350;-79
2021/11/16 02:55:11;;;;;;;46.23;23.73;;;;;;;3.18;96.65;95960.91;5078625;28;20277;-79
2021/11/16 02:57:37;;;;;;;42.73;23.37;;;;;;;3.27;96.56;95963.78;5091252;28;20218;-79
2021/11/16 03:00:09;;;;;;;46.30;23.57;;;;;;;3.31;96.49;95954.97;5091233;28;20646;-79
2021/11/16 03:02:35;;;;;;;49.60;23.50;;;;;;;3.30;96.41;95955.06;5091234;28;20267;-79
2021/11/16 03:05:01;;;;;;;49.37;24.90;;;;;;;3.31;96.33;95946.44;5079402;28;20289;-79
2021/11/16 03:07:48;;;;;;;45.80;23.60;;;;;;;3.35;96.30;95945.31;5079705;28;20286;-80
2021/11/16 03:10:15;;;;;;;43.93;23.73;;;;;;;3.29;96.73;95945.72;5070835;28;20184;-79
2021/11/16 03:12:41;;;;;;;47.27;22.03;;;;;;;3.32;96.66;95948.09;5053957;28;20229;-79
2021/11/16 03:15:07;;;;;;;48.77;23.43;;;;;;;3.25;96.75;95952.75;5079552;28;20284;-79
2021/11/16 03:17:32;;;;;;;47.50;22.03;;;;;;;3.24;96.87;95950.28;5083235;28;20191;-78
2021/11/16 03:19:57;;;;;;;43.43;23.00;;;;;;;3.36;96.48;95941.88;5074627;28;20189;-79
2021/11/16 03:22:28;;;;;;;49.83;23.73;;;;;;;3.35;95.88;95942.75;5074557;28;20246;-79
2021/11/16 03:24:58;;;;;;;42.57;23.03;;;;;;;3.32;95.59;95933.50;5070602;28;20223;-79
2021/11/16 03:27:30;;;;;;;46.67;23.63;;;;;;;3.28;96.10;95926.09;5080647;28;20545;-78
2021/11/16 03:29:58;;;;;;;43.33;21.40;;;;;;;3.29;95.79;95927.75;5091242;28;20184;-78
2021/11/16 03:32:29;;;;;;;47.53;23.97;;;;;;;3.33;95.87;95926.63;5074502;28;20574;-79
2021/11/16 03:34:55;;;;;;;43.60;22.00;;;;;;;3.32;96.04;95922.41;5091926;28;20273;-78
2021/11/16 03:37:21;;;;;;;46.27;22.73;;;;;;;3.31;95.96;95931.84;5078310;28;20196;-79
2021/11/16 03:39:47;;;;;;;45.47;22.57;;;;;;;3.31;96.24;95928.47;5077620;28;20652;-80
2021/11/16 03:42:14;;;;;;;50.17;24.93;;;;;;;3.29;96.17;95933.69;5070971;28;20207;-78
2021/11/16 03:44:39;;;;;;;49.53;23.23;;;;;;;3.31;96.27;95931.03;5070902;28;20175;-79
2021/11/16 03:47:05;;;;;;;46.63;23.20;;;;;;;3.36;96.03;95923.88;5058501;28;20190;-79
2021/11/16 03:49:30;;;;;;;44.93;22.30;;;;;;;3.32;96.53;95917.28;5079492;28;20235;-78
2021/11/16 03:51:56;;;;;;;52.10;24.33;;;;;;;3.27;96.87;95912.44;5053388;28;20231;-79
2021/11/16 03:54:22;;;;;;;48.20;24.53;;;;;;;3.28;96.85;95920.97;5071029;28;20173;-78
2021/11/16 03:56:47;;;;;;;48.60;22.57;;;;;;;3.27;96.65;95919.28;5072482;28;20181;-79
2021/11/16 03:59:13;;;;;;;44.13;23.87;;;;;;;3.22;96.78;95927.28;5079593;28;20193;-78
2021/11/16 04:01:38;;;;;;;51.83;24.60;;;;;;;3.25;97.15;95927.09;5060201;28;20736;-78
2021/11/16 04:04:05;;;;;;;49.20;26.60;;;;;;;3.27;97.35;95921.84;5076949;28;20324;-78
2021/11/16 04:06:30;;;;;;;46.03;24.50;;;;;;;3.29;97.14;95917.47;5094273;28;20215;-78
2021/11/16 04:08:58;;;;;;;47.60;23.23;;;;;;;3.29;96.67;95914.91;5083933;28;20177;-78
2021/11/16 04:11:23;;;;;;;51.33;25.13;;;;;;;3.28;96.97;95916.66;5082516;28;20209;-79
2021/11/16 04:13:49;;;;;;;45.90;22.93;;;;;;;3.30;97.08;95908.84;5056936;28;20571;-79
2021/11/16 04:16:14;;;;;;;48.03;23.23;;;;;;;3.32;96.81;95915.53;5073973;28;20178;-78
2021/11/16 04:18:41;;;;;;;48.30;23.33;;;;;;;3.27;96.63;95915.00;5078842;28;20173;-79
2021/11/16 04:21:06;;;;;;;49.57;22.43;;;;;;;3.27;96.84;95914.16;5086498;28;20213;-78
2021/11/16 04:23:31;;;;;;;40.90;22.30;;;;;;;3.22;96.97;95911.06;5093732;28;20268;-80
2021/11/16 04:25:57;;;;;;;44.37;23.13;;;;;;;3.24;97.17;95906.66;5095192;28;20216;-78
2021/11/16 04:28:23;;;;;;;46.13;21.80;;;;;;;3.22;97.34;95905.94;5094406;28;20177;-79
2021/11/16 04:30:49;;;;;;;50.20;22.57;;;;;;;3.24;97.26;95902.34;5081482;28;20209;-78
2021/11/16 04:33:16;;;;;;;43.50;21.07;;;;;;;3.21;96.71;95899.97;5073697;28;20222;-78
2021/11/16 04:35:42;;;;;;;40.90;20.87;;;;;;;3.28;96.80;95900.44;5072768;28;20568;-78
2021/11/16 04:38:09;;;;;;;41.27;21.13;;;;;;;3.21;97.07;95914.56;5074070;28;20200;-79
2021/11/16 04:40:38;;;;;;;44.43;21.47;;;;;;;3.20;97.27;95907.78;5077854;28;20206;-78
2021/11/16 04:43:07;;;;;;;41.03;20.07;;;;;;;3.22;97.06;95916.19;5085290;28;20556;-79
2021/11/16 04:45:34;;;;;;;46.17;20.97;;;;;;;3.19;97.12;95917.22;5092749;28;20203;-78
2021/11/16 04:48:07;;;;;;;38.47;20.27;;;;;;;3.22;97.37;95918.78;5093147;28;20255;-78
2021/11/16 05:04:31;;;;;;;40.07;19.40;;;;;;;3.06;96.79;95908.59;5029115;28;20228;-78
2021/11/16 05:06:57;;;;;;;37.57;18.77;;;;;;;3.10;97.26;95910.91;5035215;28;20274;-78
2021/11/16 05:09:22;;;;;;;39.57;19.80;;;;;;;3.17;97.04;95913.91;5034645;28;20251;-78
2021/11/16 05:11:48;;;;;;;40.17;19.43;;;;;;;3.17;96.90;95907.94;5035642;28;20758;-81
2021/11/16 05:14:13;;;;;;;37.93;20.07;;;;;;;3.08;97.31;95910.16;5042921;28;20283;-77
2021/11/16 05:16:39;;;;;;;38.87;19.73;;;;;;;3.08;97.62;95920.41;5035527;28;20184;-78
2021/11/16 05:19:04;;;;;;;40.30;20.10;;;;;;;3.09;97.71;95923.81;5017938;28;20202;-80
2021/11/16 05:21:29;;;;;;;42.73;22.67;;;;;;;3.05;97.50;95924.91;5035232;28;20664;-78
2021/11/16 05:24:00;;;;;;;46.93;24.87;;;;;;;3.06;97.14;95922.25;5028604;28;20188;-78
2021/11/16 05:26:27;;;;;;;39.93;20.67;;;;;;;3.11;97.07;95924.56;5040024;28;20716;-78
2021/11/16 05:28:54;;;;;;;39.30;19.07;;;;;;;3.01;96.84;95929.44;5056061;28;20186;-78
2021/11/16 05:31:19;;;;;;;37.10;18.30;;;;;;;2.99;97.59;95936.38;5075969;28;20285;-77
2021/11/16 05:33:45;;;;;;;33.27;19.00;;;;;;;2.99;96.97;95926.09;5083198;28;20281;-79
2021/11/16 05:36:10;;;;;;;35.33;19.47;;;;;;;3.08;96.70;95938.38;5078079;28;20183;-80
2021/11/16 05:38:38;;;;;;;40.37;20.03;;;;;;;2.98;96.88;95939.03;5075798;28;20187;-79
2021/11/16 05:41:04;;;;;;;38.00;18.97;;;;;;;2.98;96.93;95929.59;5056646;28;20206;-78
2021/11/16 05:43:30;;;;;;;34.20;18.43;;;;;;;2.98;96.91;95929.59;5076098;28;20283;-79
2021/11/16 05:45:56;;;;;;;36.53;18.80;;;;;;;2.92;96.77;95935.09;5081763;28;20189;-78
2021/11/16 05:48:23;;;;;;;31.53;16.60;;;;;;;2.90;97.05;95941.22;5077298;28;20188;-79
2021/11/16 05:50:50;;;;;;;32.90;18.00;;;;;;;2.93;96.93;95936.75;5082867;28;20209;-78
2021/11/16 05:53:16;;;;;;;34.43;16.80;;;;;;;3.05;97.05;95933.44;5072127;28;20190;-79
2021/11/16 05:55:43;;;;;;;34.47;17.57;;;;;;;3.00;96.65;95943.16;5086044;28;20263;-80
2021/11/16 05:58:08;;;;;;;35.90;17.43;;;;;;;3.02;96.37;95950.78;5076707;28;20184;-80
2021/11/16 06:00:34;;;;;;;32.97;15.60;;;;;;;2.98;96.13;95944.97;5056461;28;20210;-79
2021/11/16 06:02:59;;;;;;;31.07;16.63;;;;;;;2.97;96.22;95952.78;5086206;28;20567;-79
2021/11/16 06:05:25;;;;;;;30.50;16.60;;;;;;;2.96;96.40;95946.81;5076300;28;20212;-79
2021/11/16 06:07:50;;;;;;;32.93;17.30;;;;;;;2.96;96.50;95946.81;5067915;28;20572;-80
2021/11/16 06:10:16;;;;;;;31.73;17.30;;;;;;;2.93;96.35;95949.59;5079830;28;20334;-80
2021/11/16 06:12:41;;;;;;;40.90;19.10;;;;;;;2.89;96.49;95947.28;5092046;28;20190;-79
2021/11/16 06:15:07;;;;;;;42.23;20.23;;;;;;;2.91;96.35;95953.94;5075611;28;20192;-79
2021/11/16 06:17:32;;;;;;;37.33;18.33;;;;;;;2.96;96.18;95951.94;5064889;28;20192;-79
2021/11/16 06:19:59;;;;;;;28.73;15.67;;;;;;;3.01;96.24;95949.94;5061461;28;20202;-79
2021/11/16 06:22:25;;;;;;;24.33;13.43;;;;;;;2.94;95.61;95948.66;5074099;28;20196;-81
2021/11/16 06:24:50;;;;;;;23.37;12.87;;;;;;;2.94;95.69;95952.97;5073673;28;20188;-80
2021/11/16 06:27:15;;;;;;;27.17;14.70;;;;;;;2.91;95.39;95953.94;5086020;28;20176;-79
2021/11/16 06:29:41;;;;;;;28.70;14.47;;;;;;;2.91;95.57;95948.81;5074236;28;20675;-78
2021/11/16 06:32:07;;;;;;;27.43;14.47;;;;;;;2.91;95.87;95950.56;5084868;28;20216;-79
2021/11/16 06:34:33;;;;;;;32.43;16.17;;;;;;;2.86;95.76;95955.16;5070532;28;20180;-78
2021/11/16 06:36:59;;;;;;;31.37;15.40;;;;;;;2.93;95.90;95948.75;5079050;28;20184;-79
2021/11/16 06:39:24;;;;;;;26.73;15.27;;;;;;;2.87;95.79;95947.38;5083098;28;20194;-80
2021/11/16 06:41:50;;;;;;;29.57;14.97;;;;;;;2.88;95.67;95955.88;5086920;28;20616;-80
2021/11/16 06:44:18;;;;;;;24.80;13.43;;;;;;;2.79;95.40;95947.81;5054239;28;20189;-79
2021/11/16 06:46:44;;;;;;;25.97;13.83;;;;;;;2.81;95.19;95960.53;5061956;28;20201;-79
2021/11/16 06:49:10;;;;;;;28.27;13.53;;;;;;;2.79;94.85;95972.66;5056076;28;20325;-81
2021/11/16 06:51:37;;;;;;;23.37;12.23;;;;;;;2.85;95.42;95972.28;5083317;28;20607;-81
2021/11/16 06:54:08;;;;;;;24.83;13.10;;;;;;;2.74;95.77;95974.63;5085329;28;20200;-79
2021/11/16 06:56:33;;;;;;;25.13;12.67;;;;;;;2.58;96.04;95976.47;5075855;28;20235;-79
2021/11/16 06:58:59;;;;;;;18.60;11.73;;;;;;;2.62;95.49;95970.25;5082527;28;20185;-78
2021/11/16 07:01:25;;;;;;;21.30;11.83;;;;;;;2.64;95.92;95973.53;5069945;28;20287;-79
2021/11/16 07:03:52;;;;;;;23.37;13.20;;;;;;;2.66;95.72;95976.84;5074910;28;20177;-78
2021/11/16 07:06:17;;;;;;;22.50;12.33;;;;;;;2.71;95.99;95962.84;5068288;28;20259;-79
2021/11/16 07:08:44;;;;;;;20.67;11.90;;;;;;;2.77;95.87;95967.59;5078729;28;20195;-78
2021/11/16 07:11:16;;;;;;;17.27;10.33;;;;;;;2.71;95.60;95967.13;5058628;28;20292;-79
2021/11/16 07:13:55;;;;;;;18.07;10.03;;;;;;;2.75;95.28;95969.44;5074802;28;20186;-79
2021/11/16 07:16:21;;;;;;;16.63;9.47;;;;;;;2.63;94.67;95972.69;5090015;28;20180;-83
2021/11/16 07:18:49;;;;;;;19.50;10.07;;;;;;;2.59;95.08;95970.41;5060728;28;20199;-78
2021/11/16 07:21:15;;;;;;;16.57;9.37;;;;;;;2.75;94.45;95964.31;5058954;28;20213;-79
2021/11/16 07:23:41;;;;;;;16.63;9.80;;;;;;;2.84;94.16;95963.78;5076300;28;20586;-78
2021/11/16 07:26:14;;;;;;;18.67;11.73;;;;;;;2.85;94.43;95977.44;5082117;28;20560;-82
2021/11/16 07:28:48;;;;;;;18.70;10.73;;;;;;;2.93;94.50;95969.28;5062175;28;20312;-82
2021/11/16 07:31:18;;;;;;;14.63;8.23;;;;;;;2.96;93.63;95982.75;5057340;28;20303;-80
2021/11/16 07:33:43;;;;;;;16.97;9.27;;;;;;;2.97;93.80;95983.56;5084499;28;20172;-80
2021/11/16 07:36:09;;;;;;;14.70;8.87;;;;;;;3.01;94.01;95979.91;5073457;28;20189;-79
2021/11/16 07:38:34;;;;;;;14.87;9.13;;;;;;;3.03;93.56;95983.22;5067754;28;20204;-81
2021/11/16 07:41:00;;;;;;;16.40;9.33;;;;;;;2.97;94.07;95981.81;5078570;28;20811;-80
2021/11/16 07:43:26;;;;;;;18.63;9.50;;;;;;;3.07;93.85;95984.66;5075853;28;20602;-80
2021/11/16 07:45:53;;;;;;;16.10;9.43;;;;;;;3.10;93.46;95987.88;5090030;28;20225;-80
2021/11/16 07:48:23;;;;;;;16.37;9.47;;;;;;;3.02;93.24;95984.13;5080399;28;20637;-79
2021/11/16 07:50:57;;;;;;;16.57;9.37;;;;;;;3.09;93.38;95986.25;5085934;28;20205;-79
2021/11/16 07:53:31;;;;;;;14.70;8.73;;;;;;;3.12;92.70;95983.47;5066649;28;20185;-80
2021/11/16 07:56:12;;;;;;;15.80;9.80;;;;;;;3.08;93.32;95983.75;5064603;28;20181;-79
2021/11/16 07:59:05;;;;;;;17.57;9.53;;;;;;;3.11;93.02;95986.16;5089595;28;20179;-79
2021/11/16 08:01:57;;;;;;;16.23;9.10;;;;;;;3.05;93.58;95987.31;5081605;28;20220;-82
2021/11/16 08:04:26;;;;;;;17.57;11.83;;;;;;;2.92;93.67;95994.13;5083724;28;20599;-79
2021/11/16 08:12:40;;;;;;;18.07;10.03;;;;;;;2.93;93.60;95993.19;5088875;28;20581;-81
2021/11/16 08:15:02;;;;;;;13.27;8.90;;;;;;;3.02;93.31;96004.66;5077220;28;20752;-81
2021/11/16 08:17:28;;;;;;;18.20;11.47;;;;;;;2.93;93.34;95994.94;5085624;28;20196;-78
2021/11/16 08:19:59;;;;;;;44.03;31.97;;;;;;;2.93;92.82;95998.31;5067058;28;20177;-79
2021/11/16 08:22:25;;;;;;;48.00;32.27;;;;;;;2.84;93.65;95999.69;5083373;28;20181;-79
2021/11/16 08:24:51;;;;;;;19.73;12.80;;;;;;;2.87;93.94;95996.09;5082603;28;20680;-79
2021/11/16 08:27:22;;;;;;;45.87;27.00;;;;;;;2.76;93.76;95991.59;5069045;28;20194;-80
2021/11/16 08:29:57;;;;;;;18.80;14.03;;;;;;;2.87;93.59;95995.28;5083282;28;20243;-80
2021/11/16 08:32:23;;;;;;;22.93;16.70;;;;;;;2.86;94.15;95985.94;5084431;28;20246;-79
2021/11/16 08:34:54;;;;;;;14.77;10.13;;;;;;;2.78;93.84;95994.06;5081185;28;20650;-80
2021/11/16 08:37:25;;;;;;;13.40;8.77;;;;;;;2.90;94.21;95995.91;5080852;28;20197;-80
2021/11/16 08:39:57;;;;;;;16.63;9.97;;;;;;;2.92;94.08;95998.41;5071807;28;20217;-80
2021/11/16 08:42:28;;;;;;;14.87;9.23;;;;;;;2.90;94.06;95992.53;5059026;28;20207;-80
2021/11/16 08:45:05;;;;;;;13.20;9.10;;;;;;;2.94;94.12;95992.28;5063406;28;20175;-79
2021/11/16 08:47:45;;;;;;;14.53;8.77;;;;;;;2.98;93.55;95996.28;5080220;28;20193;-80
2021/11/16 08:50:32;;;;;;;13.23;8.33;;;;;;;3.06;93.45;95990.72;5066466;28;20262;-80
2021/11/16 08:52:59;;;;;;;13.73;8.30;;;;;;;3.06;93.23;95996.66;5081510;28;20267;-79
2021/11/16 08:55:28;;;;;;;15.87;10.93;;;;;;;3.06;93.71;95988.16;5074417;28;20915;-80
2021/11/16 08:57:56;;;;;;;13.63;9.20;;;;;;;3.06;93.37;95988.97;5063017;28;20187;-81
2021/11/16 09:00:24;;;;;;;12.40;8.13;;;;;;;3.09;93.23;95998.22;5063058;28;20296;-81
2021/11/16 09:02:51;;;;;;;14.70;9.43;;;;;;;3.16;93.49;96001.25;5074921;28;20183;-83
2021/11/16 09:05:19;;;;;;;16.40;11.03;;;;;;;3.29;93.58;96003.00;5083128;28;20201;-81
2021/11/16 09:07:57;;;;;;;13.83;9.03;;;;;;;3.35;92.77;96007.75;5063580;28;20189;-80
2021/11/16 09:10:35;;;;;;;11.90;7.40;;;;;;;3.48;92.41;95997.59;5079303;28;20609;-79
2021/11/16 09:13:04;;;;;;;13.00;8.10;;;;;;;3.55;92.44;96006.56;5063638;28;20187;-80
2021/11/16 09:15:37;;;;;;;14.23;7.63;;;;;;;3.60;91.76;96008.84;5062616;28;20249;-80
2021/11/16 09:18:17;;;;;;;11.90;7.80;;;;;;;3.77;91.51;95989.81;5068526;28;20184;-80
2021/11/16 09:20:53;;;;;;;13.23;7.70;;;;;;;3.76;90.53;95995.88;5085508;28;20210;-80
2021/11/16 09:23:24;;;;;;;13.63;7.73;;;;;;;3.79;89.82;95995.69;5080713;28;20247;-79
2021/11/16 09:25:52;;;;;;;10.97;7.73;;;;;;;3.87;90.63;95996.03;5081310;28;20295;-79
2021/11/16 09:28:34;;;;;;;13.90;8.20;;;;;;;3.90;90.00;96001.00;5081780;28;20179;-81
2021/11/16 09:31:01;;;;;;;15.00;8.73;;;;;;;3.95;90.30;95998.94;5072054;28;20207;-80
2021/11/16 09:33:26;;;;;;;12.90;8.20;;;;;;;4.05;90.45;95994.88;5085994;28;20275;-82
2021/11/16 09:35:54;;;;;;;11.93;8.50;;;;;;;4.00;89.47;96002.06;5076131;28;20207;-79
2021/11/16 09:38:45;;;;;;;15.27;9.53;;;;;;;4.05;90.06;95999.19;5073111;28;20227;-80
2021/11/16 09:41:13;;;;;;;13.70;8.17;;;;;;;3.88;89.89;95997.69;5070931;28;20204;-82
2021/11/16 09:43:38;;;;;;;12.50;9.00;;;;;;;3.93;90.02;95995.66;5065589;28;20187;-80
2021/11/16 09:46:10;;;;;;;14.23;8.27;;;;;;;4.03;90.62;95993.34;5083213;28;20212;-79
2021/11/16 09:48:37;;;;;;;14.87;8.80;;;;;;;4.06;90.40;95998.28;5063567;28;20275;-79
2021/11/16 09:51:14;;;;;;;12.83;8.07;;;;;;;4.04;90.40;95997.53;5080351;28;20252;-78
2021/11/16 09:53:40;;;;;;;13.23;7.93;;;;;;;3.84;89.76;95999.63;5082695;28;20191;-79
2021/11/16 09:56:16;;;;;;;14.53;8.50;;;;;;;4.01;89.78;95998.56;5084461;28;21048;-80
2021/11/16 09:58:41;;;;;;;18.77;13.20;;;;;;;3.95;90.03;95991.25;5075467;28;20180;-80
2021/11/16 10:01:07;;;;;;;18.43;12.43;;;;;;;4.04;89.83;95988.09;5081627;28;20721;-80
2021/11/16 10:03:33;;;;;;;16.57;10.67;;;;;;;4.02;89.71;95989.13;5059281;28;20184;-80
2021/11/16 10:05:58;;;;;;;17.47;11.77;;;;;;;4.06;89.75;95990.56;5061255;28;20200;-79
2021/11/16 10:08:25;;;;;;;19.07;13.43;;;;;;;4.11;89.86;95998.81;5074686;28;20312;-80
2021/11/16 10:10:53;;;;;;;20.97;15.47;;;;;;;4.16;89.42;95995.03;5082391;28;20204;-79
2021/11/16 10:13:22;;;;;;;14.40;9.10;;;;;;;4.23;88.91;95998.84;5073596;28;20284;-80
2021/11/16 10:15:50;;;;;;;13.33;8.97;;;;;;;3.98;89.14;95998.78;5067333;28;20182;-81
2021/11/16 10:18:17;;;;;;;15.37;9.60;;;;;;;4.06;89.26;95991.38;5083891;28;20264;-79
2021/11/16 10:20:45;;;;;;;11.27;7.63;;;;;;;4.05;88.13;95992.31;5079890;28;20255;-80
2021/11/16 10:23:12;;;;;;;13.37;8.70;;;;;;;4.12;87.71;95993.56;5075587;28;20624;-81
2021/11/16 10:25:43;;;;;;;14.40;9.17;;;;;;;4.21;87.36;95992.97;5073520;28;20204;-78
2021/11/16 10:28:15;;;;;;;16.10;8.63;;;;;;;4.18;87.67;95993.19;5085640;28;20331;-79
2021/11/16 10:30:41;;;;;;;19.77;10.63;;;;;;;4.05;88.90;95984.59;5075744;28;20196;-78
2021/11/16 10:33:32;;;;;;;15.37;9.07;;;;;;;4.11;88.94;95986.78;5074843;28;20192;-79
2021/11/16 10:36:13;;;;;;;18.27;11.23;;;;;;;4.28;89.03;95974.59;5076311;28;20192;-80
2021/11/16 10:38:44;;;;;;;13.30;8.20;;;;;;;4.20;87.25;95983.63;5066564;28;20215;-79
2021/11/16 10:41:13;;;;;;;14.13;8.00;;;;;;;4.26;87.41;95987.56;5079667;28;20615;-78
2021/11/16 10:43:40;;;;;;;15.73;9.23;;;;;;;4.36;87.86;95974.94;5062238;28;20219;-81
2021/11/16 10:46:06;;;;;;;15.63;8.70;;;;;;;4.39;87.61;95977.31;5064874;28;20941;-80
2021/11/16 10:48:32;;;;;;;16.77;10.10;;;;;;;4.36;87.29;95970.63;5079634;28;20184;-81
2021/11/16 10:50:58;;;;;;;15.13;9.37;;;;;;;4.21;87.33;95969.84;5068214;28;20619;-81
2021/11/16 10:53:26;;;;;;;37.80;23.20;;;;;;;4.34;87.69;95969.06;5062967;28;20213;-81
2021/11/16 10:56:00;;;;;;;62.33;36.43;;;;;;;4.35;87.49;95970.72;5065550;28;20185;-81
2021/11/16 10:58:30;;;;;;;18.47;10.53;;;;;;;4.20;86.22;95968.19;5065804;28;20191;-81
2021/11/16 11:00:59;;;;;;;13.47;9.10;;;;;;;4.29;86.85;95960.81;5065580;28;20797;-80
2021/11/16 11:03:26;;;;;;;15.17;9.43;;;;;;;4.28;86.79;95957.44;5064005;28;20184;-80
2021/11/16 11:06:04;;;;;;;14.00;9.57;;;;;;;4.28;86.83;95959.19;5060887;28;20292;-80
2021/11/16 11:08:37;;;;;;;13.30;9.17;;;;;;;4.32;86.95;95964.00;5071195;28;20195;-80
2021/11/16 11:11:06;;;;;;;13.30;8.33;;;;;;;4.26;87.17;95965.25;5071812;28;20204;-80
2021/11/16 11:13:33;;;;;;;16.57;9.83;;;;;;;4.29;87.14;95958.25;5081083;28;20303;-80
2021/11/16 11:15:59;;;;;;;15.70;9.77;;;;;;;4.36;87.03;95962.09;5077913;28;20638;-80
2021/11/16 11:18:39;;;;;;;11.23;8.10;;;;;;;4.36;87.13;95952.63;5062961;28;20203;-79
2021/11/16 11:21:10;;;;;;;14.13;9.00;;;;;;;4.39;86.60;95952.41;5089622;28;20196;-80
2021/11/16 11:23:46;;;;;;;12.83;8.63;;;;;;;4.32;85.62;95956.28;5072872;28;20900;-78
2021/11/16 11:26:33;;;;;;;11.50;7.90;;;;;;;4.51;85.96;95953.38;5080323;28;20573;-81
2021/11/16 11:29:17;;;;;;;13.60;8.17;;;;;;;4.44;85.06;95954.69;5079474;28;20191;-80
2021/11/16 11:31:44;;;;;;;10.30;7.13;;;;;;;4.47;84.97;95955.31;5064704;28;20230;-80
2021/11/16 11:34:11;;;;;;;12.43;8.43;;;;;;;4.16;86.96;95956.47;5063240;28;20208;-79
2021/11/16 11:36:37;;;;;;;12.83;8.97;;;;;;;4.17;86.90;95962.44;5079881;28;20185;-79
2021/11/16 11:39:14;;;;;;;15.33;8.87;;;;;;;4.16;86.94;95964.19;5084461;28;20567;-80
2021/11/16 11:41:54;;;;;;;15.40;9.33;;;;;;;4.13;88.02;95963.56;5085185;28;20204;-80
2021/11/16 11:44:20;;;;;;;16.27;10.07;;;;;;;4.11;88.10;95955.94;5078323;28;20192;-79
2021/11/16 11:46:55;;;;;;;17.77;10.17;;;;;;;4.08;88.50;95958.72;5054562;28;20212;-80
2021/11/16 11:49:21;;;;;;;18.97;11.33;;;;;;;4.20;88.80;95952.78;5063236;28;20187;-79
2021/11/16 11:51:47;;;;;;;16.93;11.73;;;;;;;4.29;88.63;95953.13;5078133;28;20275;-79